Time;durP1;ratioP1;P1;durP2;ratioP2;P2;SDS_P1;SDS_P2;PMS_P1;PMS_P2;Temp;Humidity;BMP_temperature;BMP_pressure;BME280_temperature;BME280_humidity;BME280_pressure;Samples;Min_cycle;Max_cycle;Signal;HPM_P1;HPM_P2
2024/03/25 00:00:46;;;;;;;8.20;3.97;;;;;;;;;;6103147;23;20033;-83
2024/03/25 00:03:16;;;;;;;10.55;3.63;;;;;;;;;;6150318;23;20022;-81
2024/03/25 00:05:43;;;;;;;11.93;2.92;;;;;;;;;;6151991;23;20010;-83
2024/03/25 00:08:09;;;;;;;8.70;2.90;;;;;;;;;;6106440;23;20048;-81
2024/03/25 00:10:36;;;;;;;13.23;2.83;;;;;;;;;;6130985;23;20017;-83
2024/03/25 00:13:03;;;;;;;7.93;2.22;;;;;;;;;;6130715;23;20021;-81
2024/03/25 00:15:30;;;;;;;6.70;2.50;;;;;;;;;;6130636;23;20017;-81
2024/03/25 00:17:56;;;;;;;7.55;2.78;;;;;;;;;;6130224;23;19986;-82
2024/03/25 00:20:26;;;;;;;7.68;2.47;;;;;;;;;;6127372;23;20010;-82
2024/03/25 00:22:52;;;;;;;10.43;2.75;;;;;;;;;;6131193;23;20046;-82
2024/03/25 00:25:18;;;;;;;6.63;2.70;;;;;;;;;;6105750;23;20034;-82
2024/03/25 00:27:46;;;;;;;6.07;2.42;;;;;;;;;;6153511;23;20021;-82
2024/03/25 00:30:12;;;;;;;9.23;3.50;;;;;;;;;;6104362;23;20010;-82
2024/03/25 00:32:38;;;;;;;10.45;3.35;;;;;;;;;;6103313;23;20018;-82
2024/03/25 00:35:04;;;;;;;11.00;3.45;;;;;;;;;;6123151;23;20010;-82
2024/03/25 00:37:31;;;;;;;8.75;3.50;;;;;;;;;;6101475;23;20018;-82
2024/03/25 00:39:57;;;;;;;7.13;3.25;;;;;;;;;;6121047;23;20017;-81
2024/03/25 00:42:23;;;;;;;8.57;3.25;;;;;;;;;;6119115;23;20010;-81
2024/03/25 00:44:51;;;;;;;5.30;2.70;;;;;;;;;;6095395;23;20590;-81
2024/03/25 00:47:16;;;;;;;7.72;2.50;;;;;;;;;;6092373;23;20044;-82
2024/03/25 00:49:42;;;;;;;6.47;2.45;;;;;;;;;;6146332;23;20010;-82
2024/03/25 00:52:08;;;;;;;7.28;3.03;;;;;;;;;;6118285;23;20038;-82
2024/03/25 00:54:35;;;;;;;4.70;2.33;;;;;;;;;;6123660;23;20006;-82
2024/03/25 00:57:00;;;;;;;5.85;2.22;;;;;;;;;;6120343;23;20061;-82
2024/03/25 00:59:26;;;;;;;6.35;2.35;;;;;;;;;;6119496;23;20021;-81
2024/03/25 01:01:51;;;;;;;5.68;2.65;;;;;;;;;;6119882;23;20444;-81
2024/03/25 01:04:17;;;;;;;6.20;2.55;;;;;;;;;;6092808;23;20352;-82
2024/03/25 01:06:43;;;;;;;6.57;2.40;;;;;;;;;;6091342;23;20010;-81
2024/03/25 01:09:10;;;;;;;6.05;2.10;;;;;;;;;;6117042;23;20025;-82
2024/03/25 01:11:36;;;;;;;5.47;2.40;;;;;;;;;;6140768;23;20006;-82
2024/03/25 01:14:02;;;;;;;7.68;2.15;;;;;;;;;;6118897;23;20093;-80
2024/03/25 01:16:28;;;;;;;9.15;3.05;;;;;;;;;;6093290;23;20017;-80
2024/03/25 01:18:53;;;;;;;4.53;1.98;;;;;;;;;;6116607;23;20010;-79
2024/03/25 01:21:19;;;;;;;6.35;2.58;;;;;;;;;;6091402;23;20036;-81
2024/03/25 01:23:45;;;;;;;6.72;2.13;;;;;;;;;;6120040;23;20018;-81
2024/03/25 01:26:10;;;;;;;6.72;2.30;;;;;;;;;;6091693;23;20061;-81
2024/03/25 01:28:36;;;;;;;5.05;2.00;;;;;;;;;;6113619;23;20014;-81
2024/03/25 01:31:02;;;;;;;5.90;2.00;;;;;;;;;;6113435;23;20013;-82
2024/03/25 01:33:28;;;;;;;6.32;1.98;;;;;;;;;;6087520;23;20006;-80
2024/03/25 01:35:55;;;;;;;6.32;2.20;;;;;;;;;;6134583;23;20352;-82
2024/03/25 01:38:22;;;;;;;6.63;1.80;;;;;;;;;;6111358;23;20014;-81
2024/03/25 01:40:48;;;;;;;7.13;1.42;;;;;;;;;;6111620;23;20020;-81
2024/03/25 01:43:14;;;;;;;5.53;1.88;;;;;;;;;;6110124;23;20009;-80
2024/03/25 01:45:39;;;;;;;5.65;1.88;;;;;;;;;;6087674;23;20010;-82
2024/03/25 01:48:07;;;;;;;5.10;1.92;;;;;;;;;;6135653;23;20010;-82
2024/03/25 01:50:38;;;;;;;6.20;2.10;;;;;;;;;;6109962;23;20361;-80
2024/03/25 01:53:05;;;;;;;9.98;3.13;;;;;;;;;;6138815;23;20025;-81
2024/03/25 01:55:32;;;;;;;5.57;2.08;;;;;;;;;;6112602;23;20481;-80
2024/03/25 01:57:58;;;;;;;9.13;2.28;;;;;;;;;;6113021;23;20066;-81
2024/03/25 02:00:25;;;;;;;10.02;2.17;;;;;;;;;;6111704;23;20043;-81
2024/03/25 02:02:51;;;;;;;5.15;2.00;;;;;;;;;;6086000;23;20014;-80
2024/03/25 02:05:18;;;;;;;4.75;1.70;;;;;;;;;;6085967;23;20013;-81
2024/03/25 02:07:44;;;;;;;4.95;2.20;;;;;;;;;;6086120;23;20010;-80
2024/03/25 02:10:10;;;;;;;5.82;2.42;;;;;;;;;;6110570;23;20017;-81
2024/03/25 02:12:38;;;;;;;10.52;2.20;;;;;;;;;;6111575;23;20073;-82
2024/03/25 02:15:05;;;;;;;9.30;2.35;;;;;;;;;;6112446;23;20406;-81
2024/03/25 02:17:30;;;;;;;6.45;2.33;;;;;;;;;;6092118;23;20009;-80
2024/03/25 02:19:56;;;;;;;8.10;2.40;;;;;;;;;;6144541;23;20037;-80
2024/03/25 02:22:22;;;;;;;3.28;1.70;;;;;;;;;;6094829;23;20011;-81
2024/03/25 02:24:49;;;;;;;8.25;2.20;;;;;;;;;;6117073;23;20009;-82
2024/03/25 02:27:16;;;;;;;5.00;1.95;;;;;;;;;;6095114;23;20060;-81
2024/03/25 02:29:41;;;;;;;5.32;2.25;;;;;;;;;;6143865;23;20016;-81
2024/03/25 02:32:11;;;;;;;7.85;2.58;;;;;;;;;;6143530;23;20037;-81
2024/03/25 02:34:37;;;;;;;4.10;1.92;;;;;;;;;;6116611;23;20033;-82
2024/03/25 02:37:03;;;;;;;11.65;2.50;;;;;;;;;;6118195;23;20002;-81
2024/03/25 02:39:29;;;;;;;5.55;1.92;;;;;;;;;;6088810;23;20101;-81
2024/03/25 02:41:56;;;;;;;6.78;2.00;;;;;;;;;;6069223;23;20022;-81
2024/03/25 02:44:23;;;;;;;4.15;1.75;;;;;;;;;;6118830;23;20009;-81
2024/03/25 02:46:48;;;;;;;7.75;2.17;;;;;;;;;;6118590;23;20012;-83
2024/03/25 02:49:14;;;;;;;8.07;1.85;;;;;;;;;;6094954;23;20014;-82
2024/03/25 02:51:40;;;;;;;5.10;1.88;;;;;;;;;;6117688;23;20009;-82
2024/03/25 02:54:06;;;;;;;4.20;1.58;;;;;;;;;;6091471;23;20033;-81
2024/03/25 02:56:31;;;;;;;10.27;1.65;;;;;;;;;;6115605;23;20063;-80
2024/03/25 02:58:57;;;;;;;8.02;2.13;;;;;;;;;;6115590;23;20009;-81
2024/03/25 03:01:23;;;;;;;4.82;1.75;;;;;;;;;;6114588;23;20355;-79
2024/03/25 03:03:50;;;;;;;5.05;1.80;;;;;;;;;;6110167;23;20014;-81
2024/03/25 03:06:16;;;;;;;6.97;1.70;;;;;;;;;;6091731;23;20451;-82
2024/03/25 03:08:41;;;;;;;9.15;1.88;;;;;;;;;;6116073;23;20069;-80
2024/03/25 03:11:07;;;;;;;5.75;2.10;;;;;;;;;;6116498;23;20013;-81
2024/03/25 03:13:32;;;;;;;4.82;2.30;;;;;;;;;;6143458;23;19998;-81
2024/03/25 03:15:58;;;;;;;6.78;1.95;;;;;;;;;;6117833;23;20057;-80
2024/03/25 03:18:24;;;;;;;6.82;1.70;;;;;;;;;;6116217;23;20014;-80
2024/03/25 03:20:50;;;;;;;6.28;1.80;;;;;;;;;;6143266;23;20423;-81
2024/03/25 03:23:15;;;;;;;4.30;1.83;;;;;;;;;;6142189;23;20461;-80
2024/03/25 03:25:42;;;;;;;6.95;2.00;;;;;;;;;;6141694;23;20017;-80
2024/03/25 03:28:08;;;;;;;5.05;1.65;;;;;;;;;;6091312;23;20014;-81
2024/03/25 03:30:33;;;;;;;6.63;1.98;;;;;;;;;;6113829;23;20433;-79
2024/03/25 03:32:59;;;;;;;4.00;1.70;;;;;;;;;;6089658;23;20084;-80
2024/03/25 03:35:25;;;;;;;5.18;2.38;;;;;;;;;;6113983;23;20006;-80
2024/03/25 03:37:52;;;;;;;3.58;1.60;;;;;;;;;;6138836;23;20010;-80
2024/03/25 03:40:18;;;;;;;4.00;1.70;;;;;;;;;;6113377;23;20014;-81
2024/03/25 03:42:43;;;;;;;4.30;1.60;;;;;;;;;;6090265;23;20009;-81
2024/03/25 03:45:09;;;;;;;5.20;1.50;;;;;;;;;;6112947;23;20025;-80
2024/03/25 03:47:34;;;;;;;4.88;1.80;;;;;;;;;;6113114;23;20071;-81
2024/03/25 03:50:00;;;;;;;4.38;1.80;;;;;;;;;;6138232;23;20042;-79
2024/03/25 03:52:25;;;;;;;7.30;1.55;;;;;;;;;;6090426;23;20010;-80
2024/03/25 03:54:51;;;;;;;5.03;1.60;;;;;;;;;;6092839;23;20351;-80
2024/03/25 03:57:17;;;;;;;3.50;1.30;;;;;;;;;;6139827;23;20340;-80
2024/03/25 03:59:42;;;;;;;4.30;1.55;;;;;;;;;;6094524;23;20017;-80
2024/03/25 04:02:08;;;;;;;3.20;1.50;;;;;;;;;;6117412;23;20002;-80
2024/03/25 04:04:34;;;;;;;5.45;1.90;;;;;;;;;;6095504;23;20006;-81
2024/03/25 04:07:01;;;;;;;6.53;1.70;;;;;;;;;;6122457;23;20014;-80
2024/03/25 04:09:28;;;;;;;5.07;1.80;;;;;;;;;;6100376;23;20013;-81
2024/03/25 04:11:55;;;;;;;9.43;1.98;;;;;;;;;;6101042;23;20002;-81
2024/03/25 04:14:23;;;;;;;6.75;2.13;;;;;;;;;;6100168;23;20056;-83
2024/03/25 04:16:48;;;;;;;5.93;1.90;;;;;;;;;;6124248;23;20006;-82
2024/03/25 04:19:14;;;;;;;6.78;2.00;;;;;;;;;;6125162;23;20073;-81
2024/03/25 04:21:41;;;;;;;7.72;2.03;;;;;;;;;;6098425;23;20006;-81
2024/03/25 04:24:07;;;;;;;6.65;2.03;;;;;;;;;;6113223;23;20006;-81
2024/03/25 04:26:33;;;;;;;5.78;1.75;;;;;;;;;;6091752;23;20016;-78
2024/03/25 04:28:59;;;;;;;6.97;2.30;;;;;;;;;;6139451;23;20009;-79
2024/03/25 04:31:25;;;;;;;4.75;1.85;;;;;;;;;;6116388;23;20033;-80
2024/03/25 04:33:50;;;;;;;7.95;2.08;;;;;;;;;;6119081;23;21346;-81
2024/03/25 04:36:16;;;;;;;4.88;2.38;;;;;;;;;;6142985;23;19994;-81
2024/03/25 04:38:41;;;;;;;6.22;1.70;;;;;;;;;;6118622;23;20010;-80
2024/03/25 04:41:08;;;;;;;9.32;2.30;;;;;;;;;;6143770;23;20013;-79
2024/03/25 04:43:34;;;;;;;3.40;1.85;;;;;;;;;;6116211;23;20064;-81
2024/03/25 04:46:03;;;;;;;6.93;2.60;;;;;;;;;;6137888;23;20005;-80
2024/03/25 04:48:28;;;;;;;3.70;1.60;;;;;;;;;;6141265;23;20348;-79
2024/03/25 04:50:55;;;;;;;7.18;1.88;;;;;;;;;;6086379;23;20093;-80
2024/03/25 04:53:20;;;;;;;5.43;2.00;;;;;;;;;;6110084;23;20021;-80
2024/03/25 04:55:46;;;;;;;11.32;2.13;;;;;;;;;;6111588;23;20018;-81
2024/03/25 04:58:12;;;;;;;9.57;2.30;;;;;;;;;;6120354;23;20013;-79
2024/03/25 05:00:37;;;;;;;7.53;2.10;;;;;;;;;;6098620;23;20006;-80
2024/03/25 05:03:04;;;;;;;7.00;1.85;;;;;;;;;;6122080;23;20364;-79
2024/03/25 05:05:30;;;;;;;6.07;1.75;;;;;;;;;;6101283;23;20006;-81
2024/03/25 05:07:57;;;;;;;4.43;1.50;;;;;;;;;;6126236;23;20002;-81
2024/03/25 05:10:23;;;;;;;7.88;1.83;;;;;;;;;;6127023;23;20037;-80
2024/03/25 05:12:49;;;;;;;5.20;1.63;;;;;;;;;;6152680;23;20037;-81
2024/03/25 05:15:15;;;;;;;7.40;2.30;;;;;;;;;;6125754;23;20002;-79
2024/03/25 05:17:42;;;;;;;4.97;2.10;;;;;;;;;;6125063;23;20014;-80
2024/03/25 05:20:07;;;;;;;8.93;2.00;;;;;;;;;;6122359;23;20021;-80
2024/03/25 05:22:33;;;;;;;12.27;2.25;;;;;;;;;;6098497;23;20506;-81
2024/03/25 05:25:00;;;;;;;8.40;1.90;;;;;;;;;;6124606;23;20006;-80
2024/03/25 05:27:26;;;;;;;4.60;2.13;;;;;;;;;;6150047;23;20006;-81
2024/03/25 05:29:51;;;;;;;4.38;1.70;;;;;;;;;;6121223;23;20112;-82
2024/03/25 05:32:17;;;;;;;4.53;1.65;;;;;;;;;;6085944;23;20006;-80
2024/03/25 05:34:43;;;;;;;4.72;1.65;;;;;;;;;;6122051;23;19998;-80
2024/03/25 05:37:08;;;;;;;6.20;1.75;;;;;;;;;;6115388;23;20344;-79
2024/03/25 05:39:34;;;;;;;4.53;1.45;;;;;;;;;;6086322;23;20053;-79
2024/03/25 05:42:00;;;;;;;4.13;1.33;;;;;;;;;;6112377;23;20010;-81
2024/03/25 05:44:26;;;;;;;4.35;1.33;;;;;;;;;;6112556;23;20006;-81
2024/03/25 05:46:52;;;;;;;3.65;1.38;;;;;;;;;;6115544;23;20016;-81
2024/03/25 05:49:18;;;;;;;3.88;1.50;;;;;;;;;;6115858;23;20009;-80
2024/03/25 05:51:43;;;;;;;10.80;1.58;;;;;;;;;;6124410;23;20006;-81
2024/03/25 05:54:09;;;;;;;6.55;1.70;;;;;;;;;;6102378;23;20034;-83
2024/03/25 05:56:35;;;;;;;4.05;1.55;;;;;;;;;;6118051;23;20026;-82
2024/03/25 05:59:02;;;;;;;7.32;1.48;;;;;;;;;;6093921;23;20010;-80
2024/03/25 06:01:27;;;;;;;5.25;1.50;;;;;;;;;;6115669;23;20021;-81
2024/03/25 06:03:53;;;;;;;6.47;1.58;;;;;;;;;;6091405;23;20343;-82
2024/03/25 06:06:20;;;;;;;5.28;1.58;;;;;;;;;;6115004;23;20010;-81
2024/03/25 06:08:46;;;;;;;6.03;1.63;;;;;;;;;;6138949;23;20061;-81
2024/03/25 06:11:12;;;;;;;3.15;1.60;;;;;;;;;;6114108;23;20010;-81
2024/03/25 06:13:39;;;;;;;13.27;2.40;;;;;;;;;;6133697;23;20352;-79
2024/03/25 06:16:04;;;;;;;5.47;2.30;;;;;;;;;;6111633;23;20020;-81
2024/03/25 06:18:30;;;;;;;5.35;2.35;;;;;;;;;;6135673;23;20006;-80
2024/03/25 06:20:55;;;;;;;5.70;2.38;;;;;;;;;;6137191;23;20064;-79
2024/03/25 06:23:25;;;;;;;7.28;2.83;;;;;;;;;;6113489;23;20013;-81
2024/03/25 06:25:51;;;;;;;8.48;3.13;;;;;;;;;;6110788;23;20018;-82
2024/03/25 06:28:17;;;;;;;8.60;4.15;;;;;;;;;;6085193;23;20159;-82
2024/03/25 06:36:12;;;;;;;9.65;3.60;;;;;;;;;;6107701;23;20014;-81
2024/03/25 06:38:37;;;;;;;8.63;3.85;;;;;;;;;;6106292;23;20013;-82
2024/03/25 06:41:03;;;;;;;7.13;3.40;;;;;;;;;;6083143;23;20010;-79
2024/03/25 06:43:29;;;;;;;7.35;3.33;;;;;;;;;;6105523;23;20010;-81
2024/03/25 06:45:55;;;;;;;9.93;3.05;;;;;;;;;;6103260;23;20069;-80
2024/03/25 06:48:21;;;;;;;7.93;3.17;;;;;;;;;;6104917;23;20145;-80
2024/03/25 06:50:57;;;;;;;8.63;2.83;;;;;;;;;;6106064;23;20005;-79
2024/03/25 06:53:23;;;;;;;8.65;2.70;;;;;;;;;;6080641;23;20006;-82
2024/03/25 06:55:55;;;;;;;8.25;2.88;;;;;;;;;;6106346;23;20029;-79
2024/03/25 06:58:21;;;;;;;11.95;2.85;;;;;;;;;;6081545;23;20041;-80
2024/03/25 07:00:50;;;;;;;4.43;2.10;;;;;;;;;;6081532;23;20009;-79
2024/03/25 07:03:19;;;;;;;6.22;2.00;;;;;;;;;;6106316;23;20006;-80
2024/03/25 07:05:45;;;;;;;;;;;;;;;;;;6082707;23;20009;-79
2024/03/25 07:08:11;;;;;;;6.18;1.70;;;;;;;;;;6129386;23;19909;-81
2024/03/25 07:10:37;;;;;;;6.97;1.83;;;;;;;;;;6083849;23;20109;-81
2024/03/25 07:13:03;;;;;;;4.78;1.33;;;;;;;;;;6083612;23;20078;-80
2024/03/25 07:15:29;;;;;;;3.80;1.38;;;;;;;;;;6108736;23;20137;-79
2024/03/25 07:17:55;;;;;;;9.07;1.60;;;;;;;;;;6131933;23;20321;-80
2024/03/25 07:20:22;;;;;;;7.50;1.85;;;;;;;;;;6131702;23;20489;-79
2024/03/25 07:22:48;;;;;;;5.05;1.65;;;;;;;;;;6105214;23;20089;-81
2024/03/25 07:25:14;;;;;;;5.00;1.88;;;;;;;;;;6104933;23;20021;-81
2024/03/25 07:27:40;;;;;;;3.80;1.00;;;;;;;;;;6104986;23;20535;-82
2024/03/25 07:30:06;;;;;;;5.53;1.50;;;;;;;;;;6104129;23;20014;-81
2024/03/25 07:32:32;;;;;;;3.63;1.55;;;;;;;;;;6129432;23;20013;-81
2024/03/25 07:34:58;;;;;;;5.38;1.30;;;;;;;;;;6105229;23;20069;-80
2024/03/25 07:37:24;;;;;;;5.93;1.40;;;;;;;;;;6081098;23;20013;-83
2024/03/25 07:39:49;;;;;;;4.82;1.00;;;;;;;;;;6131752;23;20057;-79
2024/03/25 07:42:15;;;;;;;2.00;0.82;;;;;;;;;;6104572;23;20089;-80
2024/03/25 07:44:40;;;;;;;3.55;1.17;;;;;;;;;;6082357;23;20014;-80
2024/03/25 07:47:06;;;;;;;4.82;0.88;;;;;;;;;;6085960;23;20033;-79
2024/03/25 07:49:33;;;;;;;4.13;1.17;;;;;;;;;;6112044;23;20017;-80
2024/03/25 07:52:00;;;;;;;3.38;1.20;;;;;;;;;;6086832;23;20006;-79
2024/03/25 07:54:26;;;;;;;3.92;1.65;;;;;;;;;;6087631;23;20069;-81
2024/03/25 07:56:52;;;;;;;2.30;0.80;;;;;;;;;;6137046;23;20054;-79
2024/03/25 07:59:18;;;;;;;2.65;1.20;;;;;;;;;;6088092;23;20021;-79
2024/03/25 08:01:44;;;;;;;4.32;1.10;;;;;;;;;;6093604;23;20037;-79
2024/03/25 08:04:10;;;;;;;3.13;1.10;;;;;;;;;;6118456;23;20010;-81
2024/03/25 08:06:36;;;;;;;3.40;1.05;;;;;;;;;;6119242;23;20053;-80
2024/03/25 08:09:05;;;;;;;5.28;1.23;;;;;;;;;;6119420;23;20010;-79
2024/03/25 08:11:31;;;;;;;3.13;1.27;;;;;;;;;;6118836;23;20021;-81
2024/03/25 08:13:56;;;;;;;5.35;1.50;;;;;;;;;;6092885;23;20061;-80
2024/03/25 08:16:23;;;;;;;3.13;1.38;;;;;;;;;;6092632;23;20017;-81
2024/03/25 08:18:50;;;;;;;5.85;1.48;;;;;;;;;;6141877;23;20010;-81
2024/03/25 08:21:16;;;;;;;3.83;1.17;;;;;;;;;;6115336;23;20448;-81
2024/03/25 08:23:44;;;;;;;3.85;1.38;;;;;;;;;;6083699;23;20042;-79
2024/03/25 08:26:09;;;;;;;3.63;1.15;;;;;;;;;;6132207;23;20014;-83
2024/03/25 08:28:35;;;;;;;3.38;1.50;;;;;;;;;;6132081;23;20037;-80
2024/03/25 08:31:01;;;;;;;5.43;1.73;;;;;;;;;;6105763;23;20029;-81
2024/03/25 08:33:28;;;;;;;10.05;3.40;;;;;;;;;;6106400;23;20101;-82
2024/03/25 08:35:54;;;;;;;5.18;1.75;;;;;;;;;;6082878;23;20006;-81
2024/03/25 08:38:19;;;;;;;7.63;2.33;;;;;;;;;;6110352;23;20101;-81
2024/03/25 08:40:45;;;;;;;5.88;1.63;;;;;;;;;;6130899;23;20010;-82
2024/03/25 08:43:11;;;;;;;5.57;1.50;;;;;;;;;;6106341;23;20013;-80
2024/03/25 08:45:40;;;;;;;5.05;1.70;;;;;;;;;;6132712;23;20032;-80
2024/03/25 08:48:07;;;;;;;6.00;1.77;;;;;;;;;;6106081;23;20014;-81
2024/03/25 08:50:33;;;;;;;5.28;2.08;;;;;;;;;;6105960;23;20394;-81
2024/03/25 08:53:02;;;;;;;4.60;2.13;;;;;;;;;;6107482;23;20014;-82
2024/03/25 08:55:28;;;;;;;11.27;2.45;;;;;;;;;;6082478;23;20010;-80
2024/03/25 08:57:54;;;;;;;2.30;1.17;;;;;;;;;;6106168;23;20006;-79
2024/03/25 09:00:20;;;;;;;4.25;1.33;;;;;;;;;;6110161;23;20040;-81
2024/03/25 09:02:47;;;;;;;3.10;1.30;;;;;;;;;;6111531;23;20006;-81
2024/03/25 09:05:13;;;;;;;2.05;1.00;;;;;;;;;;6115315;23;20069;-80
2024/03/25 09:07:39;;;;;;;5.45;1.30;;;;;;;;;;6146536;23;19994;-82
2024/03/25 09:12:49;;;;;;;4.47;1.45;;;;;;;;;;6117717;23;20458;-82
2024/03/25 09:15:15;;;;;;;4.13;1.52;;;;;;;;;;6113452;23;20002;-81
2024/03/25 09:17:40;;;;;;;6.28;1.40;;;;;;;;;;6109610;23;20061;-81
2024/03/25 09:20:16;;;;;;;4.32;1.27;;;;;;;;;;6112312;23;20041;-81
2024/03/25 09:22:42;;;;;;;5.70;1.58;;;;;;;;;;6067324;23;20029;-81
2024/03/25 09:25:08;;;;;;;6.93;1.30;;;;;;;;;;6086658;23;20048;-81
2024/03/25 09:27:34;;;;;;;2.78;1.23;;;;;;;;;;6109629;23;20348;-81
2024/03/25 09:30:01;;;;;;;5.32;1.33;;;;;;;;;;6108463;23;20014;-80
2024/03/25 09:32:27;;;;;;;3.72;1.77;;;;;;;;;;6109321;23;20013;-81
2024/03/25 09:34:53;;;;;;;4.50;1.30;;;;;;;;;;6110148;23;20006;-81
2024/03/25 09:37:18;;;;;;;4.32;1.75;;;;;;;;;;6109017;23;20012;-82
2024/03/25 09:39:44;;;;;;;3.38;1.35;;;;;;;;;;6110821;23;20506;-80
2024/03/25 09:42:13;;;;;;;4.65;1.67;;;;;;;;;;6133004;23;20382;-80
2024/03/25 09:44:39;;;;;;;4.05;1.30;;;;;;;;;;6083127;23;20014;-81
2024/03/25 09:47:05;;;;;;;5.90;1.10;;;;;;;;;;6105139;23;20016;-81
2024/03/25 09:49:31;;;;;;;6.22;2.00;;;;;;;;;;6130917;23;20016;-82
2024/03/25 09:51:57;;;;;;;4.10;1.60;;;;;;;;;;6081028;23;20065;-80
2024/03/25 09:54:22;;;;;;;6.68;1.90;;;;;;;;;;6159705;23;20434;-81
2024/03/25 09:56:49;;;;;;;3.75;1.33;;;;;;;;;;6108861;23;20589;-82
2024/03/25 09:59:14;;;;;;;6.15;1.80;;;;;;;;;;6085135;23;20010;-81
2024/03/25 10:01:40;;;;;;;8.77;3.10;;;;;;;;;;6108411;23;20482;-82
2024/03/25 10:04:08;;;;;;;8.50;2.00;;;;;;;;;;6108240;23;20280;-82
2024/03/25 10:06:33;;;;;;;6.22;1.88;;;;;;;;;;6107214;23;20506;-81
2024/03/25 10:09:01;;;;;;;5.30;1.10;;;;;;;;;;6106797;23;20014;-81
2024/03/25 10:11:28;;;;;;;9.13;1.50;;;;;;;;;;6104788;23;20506;-81
2024/03/25 10:13:53;;;;;;;5.88;1.35;;;;;;;;;;6103905;23;20017;-82
2024/03/25 10:16:19;;;;;;;4.00;1.67;;;;;;;;;;6104075;23;20010;-81
2024/03/25 10:18:45;;;;;;;3.45;1.27;;;;;;;;;;6105135;23;20061;-82
2024/03/25 10:21:11;;;;;;;4.20;1.10;;;;;;;;;;6104300;23;20455;-81
2024/03/25 10:23:41;;;;;;;2.97;1.00;;;;;;;;;;6104767;23;20009;-82
2024/03/25 10:26:08;;;;;;;7.10;1.30;;;;;;;;;;6106064;23;20133;-81
2024/03/25 10:28:34;;;;;;;3.90;1.10;;;;;;;;;;6104726;23;20014;-81
2024/03/25 10:31:03;;;;;;;5.88;1.10;;;;;;;;;;6057481;23;20010;-81
2024/03/25 10:33:29;;;;;;;2.72;1.05;;;;;;;;;;6079846;23;20084;-81
2024/03/25 10:35:56;;;;;;;3.85;1.20;;;;;;;;;;6080894;23;20010;-81
2024/03/25 10:38:23;;;;;;;5.78;1.38;;;;;;;;;;6105023;23;20014;-81
2024/03/25 10:40:53;;;;;;;9.73;1.45;;;;;;;;;;6105960;23;20025;-80
2024/03/25 10:43:20;;;;;;;3.35;1.38;;;;;;;;;;6080861;23;20053;-80
2024/03/25 10:45:47;;;;;;;3.42;0.98;;;;;;;;;;6106249;23;20065;-82
2024/03/25 10:48:18;;;;;;;3.83;1.33;;;;;;;;;;6081097;23;20010;-80
2024/03/25 10:50:44;;;;;;;3.97;1.13;;;;;;;;;;6104742;23;20014;-81
2024/03/25 10:53:17;;;;;;;2.45;1.33;;;;;;;;;;6105091;23;20341;-82
2024/03/25 10:55:44;;;;;;;4.43;1.20;;;;;;;;;;6104714;23;20017;-78
2024/03/25 10:58:10;;;;;;;8.07;1.90;;;;;;;;;;6081150;23;20441;-81
2024/03/25 11:00:36;;;;;;;4.05;1.35;;;;;;;;;;6080208;23;20010;-79
2024/03/25 11:03:02;;;;;;;4.25;1.10;;;;;;;;;;6104659;23;20024;-82
2024/03/25 11:05:28;;;;;;;4.88;1.20;;;;;;;;;;6105214;23;20021;-80
2024/03/25 11:07:54;;;;;;;4.18;1.10;;;;;;;;;;6106176;23;20502;-82
2024/03/25 11:10:28;;;;;;;3.92;0.93;;;;;;;;;;6081539;23;20014;-80
2024/03/25 11:12:54;;;;;;;5.82;1.20;;;;;;;;;;6104446;23;20447;-79
2024/03/25 11:15:21;;;;;;;8.60;1.77;;;;;;;;;;6105041;23;20010;-80
2024/03/25 11:17:51;;;;;;;5.30;1.17;;;;;;;;;;6106907;23;20010;-82
2024/03/25 11:20:17;;;;;;;3.05;0.68;;;;;;;;;;6104468;23;20010;-81
2024/03/25 11:22:52;;;;;;;2.40;0.82;;;;;;;;;;6081459;23;20014;-80
2024/03/25 11:25:20;;;;;;;3.30;0.68;;;;;;;;;;6107558;23;20014;-81
2024/03/25 11:27:46;;;;;;;5.57;1.10;;;;;;;;;;6107702;23;20077;-81
2024/03/25 11:30:12;;;;;;;12.02;1.20;;;;;;;;;;6081745;23;20014;-82
2024/03/25 11:32:44;;;;;;;4.70;0.98;;;;;;;;;;6083368;23;20325;-82
2024/03/25 11:35:10;;;;;;;4.32;0.98;;;;;;;;;;6109049;23;20010;-79
2024/03/25 11:37:42;;;;;;;3.35;1.05;;;;;;;;;;6083243;23;20044;-81
2024/03/25 11:40:11;;;;;;;3.55;1.02;;;;;;;;;;6106173;23;20022;-80
2024/03/25 11:42:41;;;;;;;2.30;1.00;;;;;;;;;;6081332;23;20021;-81
2024/03/25 11:45:07;;;;;;;6.05;1.35;;;;;;;;;;6083609;23;20033;-79
2024/03/25 11:47:36;;;;;;;3.03;1.33;;;;;;;;;;6130350;23;20010;-81
2024/03/25 11:50:07;;;;;;;2.85;1.05;;;;;;;;;;6105315;23;20090;-80
2024/03/25 11:52:33;;;;;;;6.03;1.48;;;;;;;;;;6085407;23;20018;-81
2024/03/25 11:54:59;;;;;;;3.78;1.10;;;;;;;;;;6132384;23;20487;-81
2024/03/25 11:57:25;;;;;;;4.53;1.65;;;;;;;;;;6131067;23;20002;-82
2024/03/25 11:59:51;;;;;;;4.57;1.30;;;;;;;;;;6107237;23;20575;-79
2024/03/25 12:02:17;;;;;;;4.57;1.20;;;;;;;;;;6090354;23;20034;-80
2024/03/25 12:04:43;;;;;;;5.05;1.23;;;;;;;;;;6107481;23;20016;-80
2024/03/25 12:07:10;;;;;;;7.30;1.58;;;;;;;;;;6093652;23;20020;-82
2024/03/25 12:12:20;;;;;;;3.78;1.13;;;;;;;;;;6119848;23;20010;-82
2024/03/25 12:14:46;;;;;;;5.78;1.50;;;;;;;;;;6121950;23;20018;-82
2024/03/25 12:17:12;;;;;;;8.70;1.33;;;;;;;;;;6118790;23;20013;-81
2024/03/25 12:19:37;;;;;;;4.03;1.00;;;;;;;;;;6094082;23;20017;-82
2024/03/25 12:22:04;;;;;;;4.05;1.30;;;;;;;;;;6142714;23;20017;-80
2024/03/25 12:24:30;;;;;;;4.22;1.08;;;;;;;;;;6115507;23;20071;-81
2024/03/25 12:26:56;;;;;;;3.13;1.30;;;;;;;;;;6110971;23;20069;-83
2024/03/25 12:29:22;;;;;;;7.90;1.75;;;;;;;;;;6089399;23;20105;-81
2024/03/25 12:31:57;;;;;;;2.88;1.42;;;;;;;;;;6088028;23;20321;-82
2024/03/25 12:34:26;;;;;;;2.97;1.15;;;;;;;;;;6088095;23;20006;-81
2024/03/25 12:37:00;;;;;;;6.90;1.45;;;;;;;;;;6115964;23;20065;-82
2024/03/25 12:39:26;;;;;;;3.58;1.23;;;;;;;;;;6136663;23;20033;-82
2024/03/25 12:41:51;;;;;;;3.97;1.38;;;;;;;;;;6089343;23;20448;-83
2024/03/25 12:44:17;;;;;;;6.53;1.83;;;;;;;;;;6113573;23;20073;-82
2024/03/25 12:46:44;;;;;;;6.10;1.90;;;;;;;;;;6086809;23;20010;-81
2024/03/25 12:49:10;;;;;;;8.57;1.63;;;;;;;;;;6108307;23;20010;-82
2024/03/25 12:51:36;;;;;;;7.55;1.40;;;;;;;;;;6084917;23;20012;-81
2024/03/25 12:54:01;;;;;;;3.78;1.30;;;;;;;;;;6133439;23;20037;-81
2024/03/25 12:56:27;;;;;;;5.82;1.58;;;;;;;;;;6110669;23;20006;-82
2024/03/25 12:58:52;;;;;;;6.45;1.48;;;;;;;;;;6108833;23;20068;-81
2024/03/25 13:01:18;;;;;;;4.20;1.60;;;;;;;;;;6106674;23;20440;-82
2024/03/25 13:03:44;;;;;;;5.70;1.45;;;;;;;;;;6104688;23;20014;-82
2024/03/25 13:06:10;;;;;;;4.15;1.48;;;;;;;;;;6106480;23;20017;-82
2024/03/25 13:08:36;;;;;;;7.25;1.20;;;;;;;;;;6104041;23;20068;-80
2024/03/25 13:11:01;;;;;;;4.57;1.30;;;;;;;;;;6110149;23;20093;-84
2024/03/25 13:13:27;;;;;;;4.28;1.50;;;;;;;;;;6082610;23;20006;-83
2024/03/25 13:15:53;;;;;;;3.65;1.13;;;;;;;;;;6132187;23;20065;-82
2024/03/25 13:18:19;;;;;;;4.78;1.15;;;;;;;;;;6103702;23;20009;-80
2024/03/25 13:20:44;;;;;;;4.28;1.25;;;;;;;;;;6103459;23;20014;-82
2024/03/25 13:23:10;;;;;;;4.30;1.08;;;;;;;;;;6079439;23;20026;-81
2024/03/25 13:25:36;;;;;;;2.88;1.15;;;;;;;;;;6081319;23;20037;-80
2024/03/25 13:28:02;;;;;;;4.85;1.05;;;;;;;;;;6103878;23;20391;-82
2024/03/25 13:30:30;;;;;;;6.28;1.20;;;;;;;;;;6128863;23;20009;-80
2024/03/25 13:32:55;;;;;;;6.78;1.70;;;;;;;;;;6078349;23;20045;-81
2024/03/25 13:35:21;;;;;;;9.93;1.45;;;;;;;;;;6128406;23;20014;-82
2024/03/25 13:37:47;;;;;;;3.95;1.50;;;;;;;;;;6107907;23;20010;-81
2024/03/25 13:40:13;;;;;;;4.18;1.35;;;;;;;;;;6107799;23;20010;-81
2024/03/25 13:42:38;;;;;;;3.80;1.65;;;;;;;;;;6082180;23;20057;-81
2024/03/25 13:45:04;;;;;;;4.85;1.55;;;;;;;;;;6083384;23;20006;-81
2024/03/25 13:47:30;;;;;;;5.72;1.13;;;;;;;;;;6105890;23;20010;-82
2024/03/25 13:50:02;;;;;;;7.03;1.55;;;;;;;;;;6104749;23;20045;-81
2024/03/25 13:52:28;;;;;;;3.95;1.45;;;;;;;;;;6104596;23;20008;-80
2024/03/25 13:54:54;;;;;;;4.93;1.35;;;;;;;;;;6103636;23;20033;-79
2024/03/25 13:57:23;;;;;;;8.07;2.17;;;;;;;;;;6105584;23;20013;-82
2024/03/25 13:59:50;;;;;;;6.55;1.40;;;;;;;;;;6130648;23;20005;-83
2024/03/25 14:02:16;;;;;;;3.95;1.13;;;;;;;;;;6081540;23;20347;-80
2024/03/25 14:04:41;;;;;;;6.82;1.80;;;;;;;;;;6109500;23;20041;-82
2024/03/25 14:07:07;;;;;;;4.78;1.45;;;;;;;;;;6114508;23;20014;-81
2024/03/25 14:09:32;;;;;;;5.95;1.60;;;;;;;;;;6140345;23;20492;-81
2024/03/25 14:11:58;;;;;;;2.92;1.30;;;;;;;;;;6092799;23;20006;-81
2024/03/25 14:14:24;;;;;;;4.97;1.35;;;;;;;;;;6139304;23;20013;-81
2024/03/25 14:16:53;;;;;;;5.03;1.45;;;;;;;;;;6116168;23;20006;-81
2024/03/25 14:19:19;;;;;;;4.90;2.08;;;;;;;;;;6116577;23;20014;-80
2024/03/25 14:21:45;;;;;;;4.63;1.20;;;;;;;;;;6112422;23;20016;-82
2024/03/25 14:24:10;;;;;;;6.47;1.10;;;;;;;;;;6136633;23;20058;-81
2024/03/25 14:26:36;;;;;;;5.70;1.20;;;;;;;;;;6136393;23;20029;-82
2024/03/25 14:29:01;;;;;;;7.20;1.50;;;;;;;;;;6087876;23;20021;-79
2024/03/25 14:31:29;;;;;;;2.67;1.10;;;;;;;;;;6140079;23;20006;-81
2024/03/25 14:33:54;;;;;;;6.45;1.35;;;;;;;;;;6139496;23;20089;-81
2024/03/25 14:36:20;;;;;;;5.82;1.50;;;;;;;;;;6096448;23;20033;-79
2024/03/25 14:38:45;;;;;;;6.43;1.10;;;;;;;;;;6143679;23;20036;-82
2024/03/25 14:41:11;;;;;;;6.22;1.88;;;;;;;;;;6114026;23;20016;-82
2024/03/25 14:43:37;;;;;;;5.53;1.38;;;;;;;;;;6113091;23;20074;-81
2024/03/25 14:46:04;;;;;;;3.20;1.10;;;;;;;;;;6136851;23;20343;-82
2024/03/25 14:48:30;;;;;;;4.22;1.30;;;;;;;;;;6135501;23;20010;-82